createdAt,value
2019-02-07T00:02:24.454Z,37.64
2019-02-07T00:04:56.805Z,37.45
2019-02-07T00:07:28.849Z,37.17
2019-02-07T00:10:00.883Z,36.97
2019-02-07T00:12:32.850Z,37.40
2019-02-07T00:15:05.713Z,37.07
2019-02-07T00:17:37.874Z,37.19
2019-02-07T00:20:11.323Z,37.25
2019-02-07T00:22:43.689Z,37.20
2019-02-07T00:25:15.664Z,37.03
2019-02-07T00:27:48.020Z,37.41
2019-02-07T00:30:20.824Z,37.25
2019-02-07T00:32:52.824Z,37.36
2019-02-07T00:35:24.856Z,37.29
2019-02-07T00:37:56.867Z,37.23
2019-02-07T00:40:29.407Z,37.21
2019-02-07T00:43:01.854Z,37.30
2019-02-07T00:45:33.811Z,37.44
2019-02-07T00:48:05.829Z,37.31
2019-02-07T00:50:37.822Z,37.30
2019-02-07T00:53:10.279Z,36.92
2019-02-07T00:55:42.680Z,37.21
2019-02-07T00:58:13.706Z,37.06
2019-02-07T01:00:44.749Z,37.45
2019-02-07T01:03:16.832Z,37.55
2019-02-07T01:05:49.325Z,37.06
2019-02-07T01:08:21.496Z,37.52
2019-02-07T01:10:53.807Z,37.54
2019-02-07T01:13:37.872Z,37.54
2019-02-07T01:16:10.015Z,37.27
2019-02-07T01:18:42.327Z,37.70
2019-02-07T01:21:17.877Z,37.65
2019-02-07T01:23:49.819Z,37.65
2019-02-07T01:26:21.923Z,37.80
2019-02-07T01:28:53.895Z,37.64
2019-02-07T01:31:25.824Z,37.64
2019-02-07T01:33:58.605Z,37.95
2019-02-07T01:36:30.826Z,37.54
2019-02-07T01:39:03.338Z,37.54
2019-02-07T01:41:35.816Z,37.59
2019-02-07T01:44:07.820Z,37.84
2019-02-07T01:46:40.551Z,37.62
2019-02-07T01:49:13.105Z,37.36
2019-02-07T01:51:45.310Z,37.60
2019-02-07T01:54:17.003Z,37.39
2019-02-07T01:56:49.356Z,37.72
2019-02-07T01:59:21.963Z,37.75
2019-02-07T02:01:54.923Z,38.06
2019-02-07T02:04:27.107Z,36.97
2019-02-07T02:06:59.897Z,37.93
2019-02-07T02:09:32.353Z,38.36
2019-02-07T02:12:04.931Z,38.35
2019-02-07T02:14:37.150Z,38.01
2019-02-07T02:17:09.881Z,37.67
2019-02-07T02:19:42.038Z,37.54
2019-02-07T02:22:14.426Z,38.16
2019-02-07T02:24:47.155Z,37.94
2019-02-07T02:27:19.878Z,37.61
2019-02-07T02:29:52.023Z,37.61
2019-02-07T02:32:24.109Z,37.37
2019-02-07T02:34:56.506Z,38.05
2019-02-07T02:37:28.863Z,37.49
2019-02-07T02:40:01.348Z,38.17
2019-02-07T02:42:33.524Z,37.60
2019-02-07T02:45:06.426Z,37.98
2019-02-07T02:47:38.888Z,37.98
2019-02-07T02:50:14.901Z,38.06
2019-02-07T02:52:47.526Z,37.55
2019-02-07T02:55:34.490Z,37.52
2019-02-07T02:58:06.917Z,37.89
2019-02-07T03:01:04.171Z,37.89
2019-02-07T03:03:54.374Z,37.68
2019-02-07T03:06:44.528Z,37.64
2019-02-07T03:09:35.564Z,37.99
2019-02-07T03:12:25.643Z,38.02
2019-02-07T03:15:19.929Z,37.92
2019-02-07T03:18:23.545Z,37.92
2019-02-07T03:21:14.078Z,37.36
2019-02-07T03:24:10.531Z,38.08
2019-02-07T03:27:01.832Z,38.55
2019-02-07T03:29:56.789Z,38.24
2019-02-07T03:32:39.287Z,37.34
2019-02-07T03:35:42.577Z,38.60
2019-02-07T03:38:36.514Z,38.42
2019-02-07T03:41:26.910Z,37.74
2019-02-07T03:44:17.522Z,37.74
2019-02-07T03:47:02.156Z,38.22
2019-02-07T03:50:01.766Z,38.08
2019-02-07T03:52:49.416Z,38.11
2019-02-07T03:55:35.351Z,37.76
2019-02-07T03:58:18.913Z,37.60
2019-02-07T04:01:13.358Z,37.60
2019-02-07T04:04:04.112Z,37.89
2019-02-07T04:06:45.484Z,38.03
2019-02-07T04:09:36.513Z,38.00
2019-02-07T04:12:27.340Z,38.18
2019-02-07T04:15:15.348Z,37.69
2019-02-07T04:18:07.856Z,37.71
2019-02-07T04:20:56.547Z,38.19
2019-02-07T04:23:53.488Z,37.20
2019-02-07T04:26:54.051Z,37.20
2019-02-07T04:29:33.375Z,38.30
2019-02-07T04:32:23.429Z,38.29
2019-02-07T04:35:12.863Z,37.58
2019-02-07T04:38:09.336Z,38.13
2019-02-07T04:40:54.440Z,37.87
2019-02-07T04:43:44.208Z,38.34
2019-02-07T04:46:47.934Z,37.90
2019-02-07T04:49:37.777Z,37.86
2019-02-07T04:52:29.347Z,37.99
2019-02-07T04:55:32.875Z,37.66
2019-02-07T04:58:22.739Z,37.68
2019-02-07T05:01:05.301Z,37.44
2019-02-07T05:03:55.678Z,37.45
2019-02-07T05:07:01.865Z,37.80
2019-02-07T05:09:51.594Z,37.46
2019-02-07T05:12:45.463Z,37.60
2019-02-07T05:15:36.431Z,37.60
2019-02-07T05:18:45.600Z,37.65
2019-02-07T05:21:39.561Z,37.71
2019-02-07T05:24:39.521Z,37.71
2019-02-07T05:27:23.889Z,37.46
2019-02-07T05:30:08.468Z,37.25
2019-02-07T05:32:52.045Z,37.91
2019-02-07T05:35:41.876Z,38.01
2019-02-07T05:38:41.773Z,37.45
2019-02-07T05:41:37.460Z,38.32
2019-02-07T05:44:41.075Z,37.50
2019-02-07T05:47:31.764Z,38.07
2019-02-07T05:50:24.930Z,37.90
2019-02-07T05:53:19.151Z,37.93
2019-02-07T05:56:08.746Z,38.30
2019-02-07T05:59:10.585Z,37.26
2019-02-07T06:02:10.717Z,37.91
2019-02-07T06:04:59.413Z,37.91
2019-02-07T06:07:40.995Z,38.59
2019-02-07T06:10:44.669Z,38.31
2019-02-07T06:13:54.418Z,38.35
2019-02-07T06:16:45.531Z,38.35
2019-02-07T06:19:36.643Z,38.21
2019-02-07T06:22:36.009Z,37.94
2019-02-07T06:25:18.361Z,37.94
2019-02-07T06:28:02.854Z,37.70
2019-02-07T06:31:09.331Z,36.95
2019-02-07T06:34:00.367Z,37.76
2019-02-07T06:36:57.835Z,37.77
2019-02-07T06:39:37.443Z,37.98
2019-02-07T06:42:31.343Z,37.53
2019-02-07T06:45:31.517Z,37.70
2019-02-07T06:48:22.033Z,38.23
2019-02-07T06:51:06.843Z,38.07
2019-02-07T06:53:57.576Z,38.31
2019-02-07T06:56:47.665Z,37.40
2019-02-07T06:59:35.900Z,37.69
2019-02-07T07:02:35.032Z,37.69
2019-02-07T07:05:40.339Z,37.52
2019-02-07T07:08:43.644Z,38.14
2019-02-07T07:11:34.050Z,37.83
2019-02-07T07:14:34.463Z,37.83
2019-02-07T07:17:28.314Z,37.84
2019-02-07T07:20:23.929Z,38.09
2019-02-07T07:23:20.510Z,38.08
2019-02-07T07:26:20.855Z,38.34
2019-02-07T07:29:08.844Z,38.34
2019-02-07T07:32:16.847Z,37.43
2019-02-07T07:35:17.338Z,38.10
2019-02-07T07:38:21.099Z,38.20
2019-02-07T07:41:06.855Z,37.55
2019-02-07T07:44:00.667Z,37.54
2019-02-07T07:47:05.621Z,37.63
2019-02-07T07:50:02.647Z,37.63
2019-02-07T07:52:53.726Z,37.54
2019-02-07T07:55:42.879Z,37.54
2019-02-07T07:58:29.359Z,37.24
2019-02-07T08:01:36.869Z,36.98
2019-02-07T08:04:17.876Z,37.57
2019-02-07T08:06:59.937Z,37.69
2019-02-07T08:09:53.558Z,37.22
2019-02-07T08:12:37.306Z,38.05
2019-02-07T08:15:34.371Z,37.99
2019-02-07T08:18:25.814Z,37.99
2019-02-07T08:21:15.835Z,37.46
2019-02-07T08:24:13.891Z,38.09
2019-02-07T08:27:10.774Z,37.70
2019-02-07T08:30:03.372Z,38.06
2019-02-07T08:32:53.003Z,38.01
2019-02-07T08:36:02.828Z,37.90
2019-02-07T08:38:53.106Z,37.65
2019-02-07T08:41:50.481Z,37.37
2019-02-07T08:44:48.343Z,37.44
2019-02-07T08:47:38.390Z,37.40
2019-02-07T08:50:44.276Z,36.93
2019-02-07T08:53:40.453Z,37.77
2019-02-07T08:56:30.416Z,38.02
2019-02-07T08:59:20.599Z,37.14
2019-02-07T09:02:17.529Z,37.70
2019-02-07T09:05:07.744Z,37.81
2019-02-07T09:07:52.541Z,37.81
2019-02-07T09:10:55.333Z,36.89
2019-02-07T09:13:45.589Z,36.89
2019-02-07T09:16:42.854Z,37.40
2019-02-07T09:19:39.459Z,37.40
2019-02-07T09:22:30.381Z,37.90
2019-02-07T09:25:23.533Z,38.01
2019-02-07T09:28:12.894Z,37.87
2019-02-07T09:31:03.646Z,37.87
2019-02-07T09:33:53.327Z,37.09
2019-02-07T09:36:53.325Z,37.09
2019-02-07T09:39:41.794Z,37.48
2019-02-07T09:42:21.827Z,35.61
2019-02-07T09:45:24.485Z,37.59
2019-02-07T09:48:21.936Z,36.63
2019-02-07T09:51:19.364Z,36.63
2019-02-07T09:54:13.342Z,37.59
2019-02-07T09:57:16.777Z,37.37
2019-02-07T10:00:16.593Z,36.82
2019-02-07T10:03:16.545Z,37.80
2019-02-07T10:06:16.712Z,37.53
2019-02-07T10:09:02.120Z,37.53
2019-02-07T10:11:55.310Z,37.34
2019-02-07T10:14:44.702Z,37.57
2019-02-07T10:17:35.325Z,37.59
2019-02-07T10:20:39.897Z,37.32
2019-02-07T10:23:33.816Z,37.08
2019-02-07T10:26:27.757Z,37.27
2019-02-07T10:29:26.346Z,37.34
2019-02-07T10:47:51.709Z,37.01
2019-02-07T10:50:46.349Z,37.45
2019-02-07T10:53:37.425Z,37.59
2019-02-07T10:56:44.339Z,37.49
2019-02-07T10:59:37.646Z,37.49
2019-02-07T11:02:27.328Z,36.79
2019-02-07T11:05:21.488Z,36.83
2019-02-07T11:08:24.926Z,36.61
2019-02-07T11:11:10.984Z,37.80
2019-02-07T11:13:59.106Z,36.90
2019-02-07T11:16:59.494Z,37.55
2019-02-07T11:19:50.367Z,37.21
2019-02-07T11:22:40.710Z,37.72
2019-02-07T11:25:44.471Z,37.44
2019-02-07T11:28:34.809Z,36.71
2019-02-07T11:31:15.873Z,37.49
2019-02-07T11:34:13.327Z,37.93
2019-02-07T11:37:03.968Z,37.16
2019-02-07T11:39:55.473Z,37.64
2019-02-07T11:42:49.533Z,37.91
2019-02-07T11:45:31.502Z,37.91
2019-02-07T11:48:13.551Z,37.13
2019-02-07T11:51:10.626Z,37.03
2019-02-07T11:54:10.291Z,37.94
2019-02-07T11:56:59.650Z,37.80
2019-02-07T11:59:52.624Z,37.25
2019-02-07T12:02:42.280Z,37.49
2019-02-07T12:05:32.409Z,37.00
2019-02-07T12:08:22.410Z,37.35
2019-02-07T12:11:13.611Z,37.68
2019-02-07T12:13:56.337Z,37.02
2019-02-07T12:16:46.846Z,37.15
2019-02-07T12:19:50.435Z,36.10
2019-02-07T12:22:40.417Z,37.09
2019-02-07T12:25:43.798Z,37.91
2019-02-07T12:28:31.868Z,37.64
2019-02-07T12:31:24.515Z,36.22
2019-02-07T12:34:18.108Z,37.50
2019-02-07T12:37:00.334Z,37.19
2019-02-07T12:39:50.053Z,37.69
2019-02-07T12:42:40.324Z,37.57
2019-02-07T12:45:34.339Z,37.85
2019-02-07T12:48:20.333Z,37.41
2019-02-07T12:51:07.342Z,37.41
2019-02-07T12:54:16.786Z,37.70
2019-02-07T12:57:05.287Z,36.92
2019-02-07T12:59:49.848Z,37.37
2019-02-07T13:02:43.469Z,37.13
2019-02-07T13:05:35.548Z,37.28
2019-02-07T13:08:32.559Z,37.28
2019-02-07T13:11:32.764Z,37.28
2019-02-07T13:14:21.791Z,37.38
2019-02-07T13:17:24.660Z,37.56
2019-02-07T13:20:27.850Z,37.56
2019-02-07T13:23:30.764Z,37.56
2019-02-07T13:26:14.496Z,37.23
2019-02-07T13:29:01.117Z,37.14
2019-02-07T13:31:53.054Z,37.61
2019-02-07T13:34:39.956Z,37.26
2019-02-07T13:37:40.010Z,37.29
2019-02-07T13:40:41.402Z,36.73
2019-02-07T13:43:38.553Z,37.37
2019-02-07T13:46:24.419Z,37.05
2019-02-07T13:49:17.317Z,36.96
2019-02-07T13:52:07.326Z,36.96
2019-02-07T13:54:59.528Z,37.65
2019-02-07T13:57:55.958Z,37.54
2019-02-07T14:00:59.289Z,37.54
2019-02-07T14:03:49.886Z,37.78
2019-02-07T14:06:56.094Z,37.47
2019-02-07T14:10:02.706Z,37.65
2019-02-07T14:12:43.276Z,37.54
2019-02-07T14:15:49.283Z,37.75
2019-02-07T14:18:40.556Z,37.55
2019-02-07T14:21:38.862Z,37.71
2019-02-07T14:24:48.381Z,38.09
2019-02-07T14:27:45.450Z,37.61
2019-02-07T14:30:42.574Z,37.67
2019-02-07T14:33:33.512Z,38.26
2019-02-07T14:36:28.437Z,38.26
2019-02-07T14:39:19.325Z,37.63
2019-02-07T14:42:09.932Z,37.79
2019-02-07T14:45:03.327Z,37.63
2019-02-07T14:47:35.459Z,37.92
2019-02-07T14:50:14.970Z,37.69
2019-02-07T14:52:43.032Z,38.22
2019-02-07T14:55:14.991Z,37.84
2019-02-07T14:57:47.758Z,37.85
2019-02-07T15:00:24.819Z,37.44
2019-02-07T15:02:56.968Z,35.88
2019-02-07T15:05:31.409Z,36.56
2019-02-07T15:08:02.880Z,34.26
2019-02-07T15:10:34.859Z,34.26
2019-02-07T15:13:06.843Z,33.28
2019-02-07T15:15:38.798Z,31.24
2019-02-07T15:18:10.900Z,31.31
2019-02-07T15:20:43.870Z,30.63
2019-02-07T15:23:15.901Z,30.87
2019-02-07T15:25:48.006Z,32.50
2019-02-07T15:28:19.998Z,30.73
2019-02-07T15:30:52.322Z,29.91
2019-02-07T15:33:23.696Z,32.01
2019-02-07T15:35:55.768Z,31.92
2019-02-07T15:38:27.817Z,31.88
2019-02-07T15:40:59.878Z,30.34
2019-02-07T15:43:31.891Z,31.75
2019-02-07T15:46:04.323Z,31.87
2019-02-07T15:48:36.836Z,31.78
2019-02-07T15:51:10.325Z,31.89
2019-02-07T15:53:42.427Z,30.45
2019-02-07T15:56:14.882Z,31.12
2019-02-07T15:59:04.541Z,31.96
2019-02-07T16:01:44.492Z,31.26
2019-02-07T16:04:19.837Z,31.26
2019-02-07T16:06:51.839Z,31.74
2019-02-07T16:09:24.026Z,31.90
2019-02-07T16:11:57.816Z,31.49
2019-02-07T16:14:29.866Z,32.06
2019-02-07T16:17:02.878Z,31.42
2019-02-07T16:19:35.853Z,31.52
2019-02-07T16:22:08.584Z,31.98
2019-02-07T16:24:40.823Z,32.98
2019-02-07T16:27:12.930Z,32.98
2019-02-07T16:29:45.637Z,32.40
2019-02-07T16:32:16.736Z,32.13
2019-02-07T16:34:48.875Z,31.55
2019-02-07T16:37:20.889Z,31.48
2019-02-07T16:39:53.371Z,32.63
2019-02-07T16:42:25.840Z,33.09
2019-02-07T16:44:57.832Z,33.33
2019-02-07T16:47:29.865Z,32.86
2019-02-07T16:50:01.827Z,31.73
2019-02-07T16:52:34.422Z,32.35
2019-02-07T16:55:08.531Z,32.32
2019-02-07T16:57:40.929Z,30.96
2019-02-07T17:00:20.181Z,30.96
2019-02-07T17:02:52.902Z,31.11
2019-02-07T17:05:26.322Z,30.98
2019-02-07T17:07:58.466Z,31.72
2019-02-07T17:10:33.857Z,31.53
2019-02-07T17:13:06.862Z,31.43
2019-02-07T17:15:39.505Z,33.27
2019-02-07T17:18:12.356Z,32.81
2019-02-07T17:20:44.865Z,32.98
2019-02-07T17:23:17.726Z,33.96
2019-02-07T17:25:49.900Z,33.08
2019-02-07T17:28:22.505Z,33.22
2019-02-07T17:30:54.845Z,33.73
2019-02-07T17:33:26.797Z,33.73
2019-02-07T17:35:58.822Z,33.90
2019-02-07T17:38:31.320Z,34.16
2019-02-07T17:41:03.045Z,35.00
2019-02-07T17:43:34.791Z,35.03
2019-02-07T17:46:05.604Z,35.26
2019-02-07T17:48:37.407Z,35.95
2019-02-07T17:51:09.297Z,35.95
2019-02-07T17:53:41.306Z,35.33
2019-02-07T17:56:12.883Z,35.52
2019-02-07T17:58:44.787Z,34.57
2019-02-07T18:01:16.573Z,36.03
2019-02-07T18:03:48.802Z,35.44
2019-02-07T18:06:20.445Z,35.44
2019-02-07T18:08:52.304Z,34.53
2019-02-07T18:11:23.866Z,33.03
2019-02-07T18:13:55.388Z,31.90
2019-02-07T18:16:27.268Z,32.16
2019-02-07T18:18:59.326Z,32.29
2019-02-07T18:21:34.353Z,32.34
2019-02-07T18:24:04.764Z,32.41
2019-02-07T18:26:35.655Z,31.14
2019-02-07T18:29:07.761Z,32.27
2019-02-07T18:31:38.537Z,32.27
2019-02-07T18:34:10.351Z,32.69
2019-02-07T18:36:42.470Z,32.69
2019-02-07T18:39:14.301Z,32.95
2019-02-07T18:41:46.032Z,32.01
2019-02-07T18:44:18.298Z,31.64
2019-02-07T18:46:50.293Z,30.92
2019-02-07T18:49:21.911Z,31.44
2019-02-07T18:51:53.759Z,32.02
2019-02-07T18:54:24.761Z,32.49
2019-02-07T18:56:56.749Z,32.89
2019-02-07T18:59:27.628Z,32.44
2019-02-07T19:01:59.345Z,33.68
2019-02-07T19:04:31.311Z,33.68
2019-02-07T19:07:03.306Z,34.06
2019-02-07T19:09:34.762Z,33.50
2019-02-07T19:12:06.370Z,34.42
2019-02-07T19:14:38.066Z,34.50
2019-02-07T19:17:10.739Z,34.50
2019-02-07T19:19:42.364Z,34.87
2019-02-07T19:22:13.661Z,34.87
2019-02-07T19:24:44.529Z,34.96
2019-02-07T19:27:16.394Z,34.88
2019-02-07T19:29:48.427Z,34.61
2019-02-07T19:32:20.066Z,34.15
2019-02-07T19:34:51.905Z,33.25
2019-02-07T19:37:23.795Z,32.81
2019-02-07T19:39:55.659Z,32.51
2019-02-07T19:42:26.468Z,32.98
2019-02-07T19:44:58.764Z,33.25
2019-02-07T19:47:29.590Z,34.28
2019-02-07T19:50:01.629Z,34.97
2019-02-07T19:52:33.386Z,34.98
2019-02-07T19:55:05.299Z,34.98
2019-02-07T19:57:37.397Z,35.10
2019-02-07T20:00:13.874Z,34.53
2019-02-07T20:02:45.738Z,34.75
2019-02-07T20:05:16.630Z,33.71
2019-02-07T20:07:48.342Z,33.45
2019-02-07T20:10:22.851Z,33.45
2019-02-07T20:12:55.056Z,33.29
2019-02-07T20:15:37.760Z,33.79
2019-02-07T20:18:11.332Z,33.76
2019-02-07T20:20:43.490Z,34.02
2019-02-07T20:23:15.366Z,35.04
2019-02-07T20:25:47.293Z,35.04
2019-02-07T20:28:19.293Z,36.06
2019-02-07T20:33:22.745Z,35.78
2019-02-07T20:35:53.650Z,36.17
2019-02-07T20:38:25.880Z,35.82
2019-02-07T20:40:57.742Z,35.73
2019-02-07T20:43:28.450Z,36.28
2019-02-07T20:46:00.646Z,36.69
2019-02-07T20:48:32.332Z,36.83
2019-02-07T20:51:04.355Z,36.83
2019-02-07T20:53:36.025Z,37.03
2019-02-07T20:56:07.752Z,36.75
2019-02-07T20:58:38.353Z,36.83
2019-02-07T21:01:10.067Z,36.83
2019-02-07T21:03:41.740Z,37.20
2019-02-07T21:06:14.862Z,36.93
2019-02-07T21:08:46.758Z,37.42
2019-02-07T21:11:17.537Z,37.55
2019-02-07T21:13:49.499Z,37.53
2019-02-07T21:16:22.050Z,37.53
2019-02-07T21:18:53.731Z,37.46
2019-02-07T21:21:24.586Z,37.34
2019-02-07T21:23:55.468Z,37.72
2019-02-07T21:26:27.805Z,37.85
2019-02-07T21:29:00.302Z,37.85
2019-02-07T21:31:32.313Z,37.59
2019-02-07T21:34:04.464Z,37.24
2019-02-07T21:36:36.758Z,37.69
2019-02-07T21:39:11.580Z,37.69
2019-02-07T21:41:43.794Z,37.55
2019-02-07T21:44:16.303Z,37.61
2019-02-07T22:00:25.308Z,37.93
2019-02-07T22:02:57.773Z,37.20
2019-02-07T22:05:31.641Z,37.20
2019-02-07T22:08:03.416Z,37.55
2019-02-07T22:10:35.311Z,37.55
2019-02-07T22:13:07.798Z,37.78
2019-02-07T22:15:40.305Z,37.48
2019-02-07T22:18:12.626Z,37.26
2019-02-07T22:20:44.745Z,37.53
2019-02-07T22:23:16.605Z,37.53
2019-02-07T22:25:47.922Z,37.45
2019-02-07T22:28:19.362Z,37.01
2019-02-07T22:30:51.320Z,37.72
2019-02-07T22:33:23.367Z,37.72
2019-02-07T22:35:55.048Z,37.61
2019-02-07T22:38:26.750Z,37.67
2019-02-07T22:40:58.737Z,38.13
2019-02-07T22:43:30.788Z,37.79
2019-02-07T22:46:02.776Z,37.42
2019-02-07T22:48:34.453Z,37.99
2019-02-07T22:51:06.389Z,37.32
2019-02-07T22:53:38.285Z,38.02
2019-02-07T22:56:10.009Z,37.79
2019-02-07T22:58:41.784Z,37.57
2019-02-07T23:01:45.267Z,37.92
2019-02-07T23:04:17.813Z,38.04
2019-02-07T23:06:50.001Z,38.08
2019-02-07T23:09:21.851Z,38.46
2019-02-07T23:11:54.280Z,38.16
2019-02-07T23:14:26.309Z,38.42
2019-02-07T23:16:58.074Z,38.45
2019-02-07T23:19:29.833Z,38.51
2019-02-07T23:22:01.816Z,38.39
2019-02-07T23:24:33.882Z,38.21
2019-02-07T23:27:05.837Z,38.26
2019-02-07T23:29:37.454Z,38.25
2019-02-07T23:32:09.526Z,38.42
2019-02-07T23:34:41.416Z,37.77
2019-02-07T23:37:13.652Z,38.35
2019-02-07T23:39:44.608Z,38.31
2019-02-07T23:42:16.373Z,38.27
2019-02-07T23:44:48.309Z,38.27
2019-02-07T23:47:20.031Z,38.19
2019-02-07T23:49:51.806Z,38.17
2019-02-07T23:52:23.618Z,38.24
2019-02-07T23:54:55.635Z,38.15
2019-02-07T23:57:27.736Z,38.15
2019-02-07T23:59:59.627Z,37.88
